createdAt,value
2022-12-15T00:00:30.735Z,41.93
2022-12-15T00:04:09.827Z,43.10
2022-12-15T00:07:50.214Z,43.13
2022-12-15T00:11:29.163Z,41.63
2022-12-15T00:15:08.548Z,49.63
2022-12-15T00:18:47.500Z,51.10
2022-12-15T00:22:26.206Z,50.20
2022-12-15T00:26:06.723Z,72.43
2022-12-15T00:29:45.485Z,60.90
2022-12-15T00:33:29.894Z,64.50
2022-12-15T00:37:09.275Z,57.00
2022-12-15T00:40:30.736Z,44.90
2022-12-15T00:43:53.867Z,56.70
2022-12-15T00:47:15.403Z,50.57
2022-12-15T00:50:54.382Z,50.43
2022-12-15T00:54:33.549Z,52.83
2022-12-15T00:58:13.085Z,47.73
2022-12-15T01:01:53.675Z,45.93
2022-12-15T01:05:32.976Z,50.03
2022-12-15T01:09:11.770Z,45.33
2022-12-15T01:12:50.703Z,46.40
2022-12-15T01:16:30.523Z,45.40
2022-12-15T01:20:10.801Z,37.73
2022-12-15T01:23:33.288Z,41.23
2022-12-15T01:26:56.178Z,44.53
2022-12-15T01:30:21.162Z,40.67
2022-12-15T01:33:43.778Z,44.20
2022-12-15T01:37:06.815Z,47.03
2022-12-15T01:40:46.227Z,50.70
2022-12-15T01:44:23.696Z,48.90
2022-12-15T01:47:45.511Z,41.03
2022-12-15T01:51:12.471Z,48.73
2022-12-15T01:54:40.106Z,42.23
2022-12-15T01:58:05.131Z,40.97
2022-12-15T02:01:27.216Z,44.63
2022-12-15T02:04:50.855Z,39.03
2022-12-15T02:08:13.062Z,39.70
2022-12-15T02:11:49.157Z,44.27
2022-12-15T02:15:20.329Z,43.07
2022-12-15T02:18:52.463Z,39.70
2022-12-15T02:22:27.976Z,42.90
2022-12-15T02:26:11.034Z,39.73
2022-12-15T02:29:58.885Z,42.30
2022-12-15T02:33:27.330Z,40.03
2022-12-15T02:36:52.800Z,43.87
2022-12-15T02:40:14.429Z,46.80
2022-12-15T02:43:39.984Z,49.73
2022-12-15T02:47:28.154Z,46.20
2022-12-15T02:51:06.945Z,40.90
2022-12-15T02:54:47.947Z,38.83
2022-12-15T02:58:16.257Z,41.37
2022-12-15T03:01:42.798Z,41.80
2022-12-15T03:05:05.770Z,44.47
2022-12-15T03:08:28.917Z,41.33
2022-12-15T03:11:50.973Z,39.10
2022-12-15T03:15:12.937Z,37.93
2022-12-15T03:18:34.402Z,43.33
2022-12-15T03:21:56.130Z,41.57
2022-12-15T03:25:19.514Z,42.97
2022-12-15T03:28:41.165Z,42.57
2022-12-15T03:32:03.322Z,47.80
2022-12-15T03:35:25.290Z,43.50
2022-12-15T03:38:46.723Z,40.70
2022-12-15T03:42:10.204Z,48.83
2022-12-15T03:45:32.250Z,43.30
2022-12-15T03:48:54.072Z,45.80
2022-12-15T03:52:15.846Z,44.73
2022-12-15T03:55:37.705Z,44.90
2022-12-15T03:59:00.583Z,47.07
2022-12-15T04:02:22.679Z,47.80
2022-12-15T04:05:44.692Z,49.10
2022-12-15T04:09:06.504Z,40.03
2022-12-15T04:12:28.282Z,47.50
2022-12-15T04:15:51.569Z,49.70
2022-12-15T04:19:30.566Z,47.57
2022-12-15T04:22:52.727Z,49.03
2022-12-15T04:26:32.667Z,55.63
2022-12-15T04:30:11.440Z,64.97
2022-12-15T04:33:52.599Z,55.27
2022-12-15T04:37:33.066Z,73.63
2022-12-15T04:41:12.165Z,67.07
2022-12-15T04:44:51.457Z,69.33
2022-12-15T04:48:31.287Z,61.37
2022-12-15T04:52:11.736Z,54.17
2022-12-15T04:55:53.669Z,44.87
2022-12-15T04:59:32.986Z,45.77
2022-12-15T05:03:17.930Z,53.37
2022-12-15T05:06:57.290Z,60.27
2022-12-15T05:10:37.726Z,55.27
2022-12-15T05:14:16.642Z,44.73
2022-12-15T05:17:55.704Z,44.03
2022-12-15T05:21:34.595Z,39.57
2022-12-15T05:25:13.840Z,46.30
2022-12-15T05:28:54.418Z,47.57
2022-12-15T05:32:16.058Z,42.57
2022-12-15T05:35:37.753Z,49.17
2022-12-15T05:38:59.572Z,46.87
2022-12-15T05:42:21.596Z,52.90
2022-12-15T05:45:44.703Z,53.50
2022-12-15T05:49:07.494Z,41.70
2022-12-15T05:52:29.280Z,50.93
2022-12-15T05:55:50.980Z,47.00
2022-12-15T05:59:13.249Z,49.87
2022-12-15T06:02:36.372Z,47.80
2022-12-15T06:05:58.245Z,48.87
2022-12-15T06:09:20.189Z,47.47
2022-12-15T06:12:42.296Z,51.77
2022-12-15T06:16:06.513Z,48.53
2022-12-15T06:19:29.473Z,54.13
2022-12-15T06:22:51.219Z,56.43
2022-12-15T06:26:16.130Z,51.83
2022-12-15T06:29:37.961Z,53.47
2022-12-15T06:32:59.855Z,50.37
2022-12-15T06:36:24.842Z,55.53
2022-12-15T06:39:46.708Z,51.90
2022-12-15T06:43:09.334Z,47.67
2022-12-15T06:46:32.792Z,47.17
2022-12-15T06:49:55.429Z,57.17
2022-12-15T06:53:20.233Z,47.33
2022-12-15T06:56:42.415Z,57.73
2022-12-15T07:00:06.263Z,61.23
2022-12-15T07:03:28.578Z,58.67
2022-12-15T07:06:51.348Z,64.13
2022-12-15T07:10:14.827Z,59.33
2022-12-15T07:13:38.351Z,57.90
2022-12-15T07:17:00.426Z,62.80
2022-12-15T07:20:27.114Z,63.60
2022-12-15T07:23:55.740Z,62.00
2022-12-15T07:27:19.447Z,66.13
2022-12-15T07:30:41.089Z,59.80
2022-12-15T07:34:04.918Z,60.33
2022-12-15T07:37:26.468Z,55.97
2022-12-15T07:40:49.178Z,65.50
2022-12-15T07:44:12.502Z,65.27
2022-12-15T07:47:34.686Z,52.37
2022-12-15T07:51:07.236Z,68.23
2022-12-15T07:54:29.405Z,62.33
2022-12-15T07:57:51.020Z,72.70
2022-12-15T08:01:15.563Z,56.47
2022-12-15T08:04:37.394Z,61.80
2022-12-15T08:07:59.361Z,60.70
2022-12-15T08:11:24.586Z,59.80
2022-12-15T08:14:46.302Z,65.67
2022-12-15T08:18:13.439Z,66.63
2022-12-15T08:21:35.442Z,60.37
2022-12-15T08:24:56.844Z,65.70
2022-12-15T08:28:19.547Z,64.13
2022-12-15T08:31:41.817Z,73.03
2022-12-15T08:35:19.921Z,62.67
2022-12-15T08:38:48.429Z,56.93
2022-12-15T08:42:10.417Z,65.50
2022-12-15T08:45:32.403Z,66.30
2022-12-15T08:48:54.582Z,68.17
2022-12-15T08:52:17.722Z,61.30
2022-12-15T08:55:40.618Z,65.67
2022-12-15T08:59:03.339Z,70.07
2022-12-15T09:02:25.138Z,60.27
2022-12-15T09:05:46.943Z,57.43
2022-12-15T09:09:14.635Z,59.60
2022-12-15T09:12:36.497Z,62.37
2022-12-15T09:16:13.999Z,62.13
2022-12-15T09:19:36.575Z,58.07
2022-12-15T09:22:58.988Z,60.97
2022-12-15T09:26:24.278Z,51.10
2022-12-15T09:29:46.323Z,56.97
2022-12-15T09:33:08.344Z,57.00
2022-12-15T09:36:32.765Z,62.20
2022-12-15T09:39:54.816Z,59.20
2022-12-15T09:43:42.863Z,53.63
2022-12-15T09:47:17.483Z,53.80
2022-12-15T09:50:42.012Z,56.80
2022-12-15T09:54:04.384Z,55.20
2022-12-15T09:57:41.526Z,51.77
2022-12-15T10:01:14.488Z,59.47
2022-12-15T10:04:44.799Z,50.80
2022-12-15T10:08:07.275Z,62.23
2022-12-15T10:11:50.247Z,49.03
2022-12-15T10:15:24.078Z,59.17
2022-12-15T10:19:01.190Z,55.13
2022-12-15T10:22:26.814Z,53.53
2022-12-15T10:25:51.819Z,53.70
2022-12-15T10:29:37.560Z,53.37
2022-12-15T10:33:03.753Z,51.63
2022-12-15T10:36:27.051Z,47.53
2022-12-15T10:39:51.516Z,51.97
2022-12-15T10:43:16.372Z,50.53
2022-12-15T10:46:37.995Z,50.63
2022-12-15T10:50:24.253Z,49.03
2022-12-15T10:53:51.257Z,44.37
2022-12-15T10:57:18.691Z,51.13
2022-12-15T11:00:41.051Z,49.00
2022-12-15T11:04:02.919Z,46.30
2022-12-15T11:07:26.328Z,45.93
2022-12-15T11:11:11.174Z,43.07
2022-12-15T11:14:43.921Z,43.30
2022-12-15T11:18:12.834Z,48.03
2022-12-15T11:21:40.752Z,44.93
2022-12-15T11:25:13.357Z,47.50
2022-12-15T11:28:43.935Z,45.80
2022-12-15T11:32:07.768Z,42.70
2022-12-15T11:35:43.957Z,43.67
2022-12-15T11:39:14.211Z,41.23
2022-12-15T11:42:47.616Z,44.37
2022-12-15T11:46:23.891Z,43.90
2022-12-15T11:50:17.840Z,44.27
2022-12-15T11:54:11.296Z,46.90
2022-12-15T11:57:53.219Z,41.80
2022-12-15T12:01:34.762Z,43.00
2022-12-15T12:05:15.550Z,44.63
2022-12-15T12:09:01.741Z,43.60
2022-12-15T12:12:30.458Z,45.70
2022-12-15T12:15:58.910Z,43.77
2022-12-15T12:19:26.499Z,42.53
2022-12-15T12:22:56.135Z,43.30
2022-12-15T12:26:24.491Z,39.23
2022-12-15T12:29:50.159Z,39.17
2022-12-15T12:33:21.643Z,45.87
2022-12-15T12:36:48.930Z,42.80
2022-12-15T12:40:20.019Z,39.17
2022-12-15T12:43:45.419Z,44.10
2022-12-15T12:47:20.548Z,39.43
2022-12-15T12:50:42.639Z,39.73
2022-12-15T12:54:40.370Z,39.67
2022-12-15T12:58:02.362Z,47.73
2022-12-15T13:01:28.781Z,41.40
2022-12-15T13:04:52.831Z,40.40
2022-12-15T13:08:34.153Z,44.80
2022-12-15T13:12:15.022Z,42.37
2022-12-15T13:15:45.273Z,37.57
2022-12-15T13:19:09.446Z,42.33
2022-12-15T13:22:34.528Z,42.60
2022-12-15T13:26:12.568Z,39.27
2022-12-15T13:29:37.387Z,39.67
2022-12-15T13:33:18.525Z,42.73
2022-12-15T13:36:58.570Z,46.10
2022-12-15T13:40:36.726Z,41.37
2022-12-15T13:44:01.539Z,42.17
2022-12-15T13:47:27.469Z,42.73
2022-12-15T13:50:57.379Z,43.77
2022-12-15T13:54:24.903Z,43.77
2022-12-15T13:57:56.634Z,48.20
2022-12-15T14:01:32.700Z,46.50
2022-12-15T14:05:15.254Z,40.03
2022-12-15T14:08:37.088Z,42.90
2022-12-15T14:12:02.705Z,44.43
2022-12-15T14:15:29.304Z,43.07
2022-12-15T14:19:05.951Z,49.97
2022-12-15T14:22:30.944Z,41.57
2022-12-15T14:25:58.516Z,41.43
2022-12-15T14:29:20.980Z,40.03
2022-12-15T14:32:45.327Z,41.07
2022-12-15T14:36:11.810Z,50.70
2022-12-15T14:39:40.814Z,46.53
2022-12-15T14:43:02.444Z,39.37
2022-12-15T14:46:28.450Z,43.00
2022-12-15T14:49:51.134Z,47.83
2022-12-15T14:53:16.952Z,46.73
2022-12-15T14:56:40.870Z,41.23
2022-12-15T15:00:26.704Z,42.23
2022-12-15T15:03:57.560Z,48.07
2022-12-15T15:07:20.871Z,45.80
2022-12-15T15:10:44.188Z,44.73
2022-12-15T15:14:12.412Z,48.23
2022-12-15T15:17:38.579Z,45.20
2022-12-15T15:21:03.340Z,42.77
2022-12-15T15:24:30.875Z,48.67
2022-12-15T15:27:52.443Z,46.17
2022-12-15T15:31:32.678Z,47.77
2022-12-15T15:34:58.495Z,46.13
2022-12-15T15:38:27.068Z,47.87
2022-12-15T15:41:48.932Z,44.40
2022-12-15T15:45:13.753Z,40.30
2022-12-15T15:48:40.775Z,47.97
2022-12-15T15:52:02.980Z,46.20
2022-12-15T15:55:28.775Z,45.70
2022-12-15T15:58:50.208Z,49.37
2022-12-15T16:02:14.509Z,57.70
2022-12-15T16:05:38.051Z,55.90
2022-12-15T16:09:00.202Z,49.03
2022-12-15T16:12:27.709Z,46.47
2022-12-15T16:15:50.560Z,49.87
2022-12-15T16:19:13.141Z,47.80
2022-12-15T16:22:36.361Z,47.20
2022-12-15T16:26:00.276Z,47.63
2022-12-15T16:29:22.457Z,49.57
2022-12-15T16:32:44.208Z,46.43
2022-12-15T16:36:11.627Z,48.43
2022-12-15T16:39:36.840Z,44.93
2022-12-15T16:43:01.310Z,51.47
2022-12-15T16:46:23.027Z,53.57
2022-12-15T16:49:45.271Z,51.77
2022-12-15T16:53:11.214Z,56.57
2022-12-15T16:56:34.502Z,55.53
2022-12-15T16:59:56.740Z,53.10
2022-12-15T17:03:23.209Z,57.33
2022-12-15T17:06:45.480Z,59.77
2022-12-15T17:10:08.478Z,75.10
2022-12-15T17:13:41.948Z,79.93
2022-12-15T17:17:13.598Z,74.63
2022-12-15T17:20:35.073Z,68.33
2022-12-15T17:24:00.018Z,64.80
2022-12-15T17:27:27.980Z,61.53
2022-12-15T17:30:51.993Z,65.87
2022-12-15T17:34:27.118Z,59.30
2022-12-15T17:37:48.898Z,62.47
2022-12-15T17:41:35.128Z,54.83
2022-12-15T17:44:55.648Z,48.17
2022-12-15T17:48:19.230Z,48.50
2022-12-15T17:51:42.051Z,49.23
2022-12-15T17:55:05.630Z,52.57
2022-12-15T17:58:28.163Z,47.33
2022-12-15T18:01:49.924Z,42.83
2022-12-15T18:05:16.066Z,42.17
2022-12-15T18:08:38.060Z,47.57
2022-12-15T18:11:59.666Z,52.93
2022-12-15T18:15:23.385Z,47.00
2022-12-15T18:18:46.628Z,46.63
2022-12-15T18:22:15.226Z,45.53
2022-12-15T18:25:36.814Z,50.47
2022-12-15T18:28:58.682Z,43.60
2022-12-15T18:32:23.889Z,46.17
2022-12-15T18:35:46.865Z,38.63
2022-12-15T18:39:18.202Z,45.07
2022-12-15T18:42:40.507Z,44.57
2022-12-15T18:46:02.617Z,52.37
2022-12-15T18:49:24.501Z,47.47
2022-12-15T18:52:46.567Z,49.17
2022-12-15T18:56:09.952Z,51.10
2022-12-15T18:59:31.687Z,42.17
2022-12-15T19:02:55.131Z,44.83
2022-12-15T19:06:26.007Z,48.00
2022-12-15T19:09:47.971Z,49.77
2022-12-15T19:13:15.118Z,45.73
2022-12-15T19:16:50.543Z,51.53
2022-12-15T19:20:35.942Z,52.30
2022-12-15T19:23:57.992Z,51.13
2022-12-15T19:27:23.248Z,52.57
2022-12-15T19:30:47.403Z,45.27
2022-12-15T19:34:09.365Z,51.23
2022-12-15T19:37:32.061Z,45.90
2022-12-15T19:40:55.408Z,57.10
2022-12-15T19:44:17.447Z,53.20
2022-12-15T19:47:40.550Z,58.87
2022-12-15T19:51:02.477Z,58.60
2022-12-15T19:54:25.058Z,55.17
2022-12-15T19:57:46.600Z,55.03
2022-12-15T20:01:12.245Z,48.87
2022-12-15T20:04:35.778Z,48.77
2022-12-15T20:07:57.748Z,55.60
2022-12-15T20:11:21.657Z,53.73
2022-12-15T20:14:43.398Z,48.73
2022-12-15T20:18:05.251Z,50.20
2022-12-15T20:21:32.453Z,49.17
2022-12-15T20:24:54.100Z,63.67
2022-12-15T20:28:21.807Z,53.57
2022-12-15T20:31:43.576Z,56.47
2022-12-15T20:35:06.000Z,67.43
2022-12-15T20:38:34.231Z,63.67
2022-12-15T20:41:57.014Z,54.70
2022-12-15T20:45:20.784Z,62.77
2022-12-15T20:48:43.112Z,59.80
2022-12-15T20:52:05.110Z,62.23
2022-12-15T20:55:28.153Z,48.80
2022-12-15T20:58:50.703Z,47.47
2022-12-15T21:02:19.502Z,48.53
2022-12-15T21:05:41.431Z,54.17
2022-12-15T21:09:03.222Z,49.20
2022-12-15T21:12:28.610Z,49.30
2022-12-15T21:15:50.250Z,58.53
2022-12-15T21:19:21.730Z,61.97
2022-12-15T21:22:44.390Z,56.43
2022-12-15T21:26:06.588Z,60.50
2022-12-15T21:29:30.781Z,59.13
2022-12-15T21:32:52.555Z,62.53
2022-12-15T21:36:15.208Z,63.27
2022-12-15T21:39:40.362Z,62.57
2022-12-15T21:43:05.872Z,66.30
2022-12-15T21:46:30.046Z,69.00
2022-12-15T21:49:52.964Z,65.07
2022-12-15T21:53:18.488Z,65.00
2022-12-15T21:56:40.810Z,64.53
2022-12-15T22:00:02.765Z,59.63
2022-12-15T22:03:37.190Z,57.57
2022-12-15T22:06:58.702Z,56.30
2022-12-15T22:10:21.142Z,54.80
2022-12-15T22:13:43.545Z,49.73
2022-12-15T22:17:17.195Z,51.47
2022-12-15T22:20:42.472Z,52.70
2022-12-15T22:24:05.404Z,46.03
2022-12-15T22:27:27.821Z,52.00
2022-12-15T22:30:50.434Z,49.23
2022-12-15T22:34:18.209Z,52.03
2022-12-15T22:37:41.561Z,50.70
2022-12-15T22:41:04.468Z,48.13
2022-12-15T22:44:28.370Z,44.90
2022-12-15T22:47:51.183Z,45.27
2022-12-15T22:51:16.513Z,49.10
2022-12-15T22:54:46.327Z,50.03
2022-12-15T22:58:11.834Z,53.37
2022-12-15T23:01:33.499Z,60.20
2022-12-15T23:04:55.237Z,48.33
2022-12-15T23:08:17.122Z,47.40
2022-12-15T23:11:41.435Z,44.80
2022-12-15T23:15:32.014Z,46.37
2022-12-15T23:18:55.151Z,42.70
2022-12-15T23:22:16.648Z,46.43
2022-12-15T23:25:38.669Z,45.50
2022-12-15T23:29:01.425Z,50.63
2022-12-15T23:32:23.390Z,49.27
2022-12-15T23:35:45.698Z,44.20
2022-12-15T23:39:06.842Z,44.80
2022-12-15T23:42:28.611Z,47.03
2022-12-15T23:45:59.082Z,48.23
2022-12-15T23:49:20.803Z,54.17
2022-12-15T23:52:42.863Z,51.30
2022-12-15T23:56:09.592Z,44.70
2022-12-15T23:59:31.410Z,45.77
